sensor_id;sensor_type;location;lat;lon;timestamp;temperature;humidity
65470;DHT22;52067;50.710;14.492;2023-08-06T00:00:14;15.66;89.29
65470;DHT22;52067;50.710;14.492;2023-08-06T00:02:39;15.78;88.84
65470;DHT22;52067;50.710;14.492;2023-08-06T00:05:04;15.86;88.57
65470;DHT22;52067;50.710;14.492;2023-08-06T00:07:30;15.92;88.42
65470;DHT22;52067;50.710;14.492;2023-08-06T00:09:55;15.68;88.50
65470;DHT22;52067;50.710;14.492;2023-08-06T00:12:20;15.79;88.54
65470;DHT22;52067;50.710;14.492;2023-08-06T00:14:49;15.62;88.70
65470;DHT22;52067;50.710;14.492;2023-08-06T00:17:14;15.54;88.77
65470;DHT22;52067;50.710;14.492;2023-08-06T00:19:40;15.47;88.99
65470;DHT22;52067;50.710;14.492;2023-08-06T00:22:05;15.41;89.14
65470;DHT22;52067;50.710;14.492;2023-08-06T00:24:30;15.54;89.17
65470;DHT22;52067;50.710;14.492;2023-08-06T00:26:56;15.49;89.13
65470;DHT22;52067;50.710;14.492;2023-08-06T00:29:21;15.59;89.11
65470;DHT22;52067;50.710;14.492;2023-08-06T00:31:46;15.49;89.16
65470;DHT22;52067;50.710;14.492;2023-08-06T00:34:11;15.55;89.16
65470;DHT22;52067;50.710;14.492;2023-08-06T00:36:37;15.38;89.23
65470;DHT22;52067;50.710;14.492;2023-08-06T00:39:02;15.37;89.43
65470;DHT22;52067;50.710;14.492;2023-08-06T00:41:27;15.38;89.50
65470;DHT22;52067;50.710;14.492;2023-08-06T00:43:53;15.18;90.17
65470;DHT22;52067;50.710;14.492;2023-08-06T00:46:18;15.45;90.00
65470;DHT22;52067;50.710;14.492;2023-08-06T00:48:43;15.34;89.82
65470;DHT22;52067;50.710;14.492;2023-08-06T00:51:09;15.37;89.94
65470;DHT22;52067;50.710;14.492;2023-08-06T00:53:35;15.45;89.68
65470;DHT22;52067;50.710;14.492;2023-08-06T00:56:01;15.34;89.66
65470;DHT22;52067;50.710;14.492;2023-08-06T00:58:27;15.21;89.86
65470;DHT22;52067;50.710;14.492;2023-08-06T01:00:52;15.26;90.12
65470;DHT22;52067;50.710;14.492;2023-08-06T01:03:18;15.31;89.88
65470;DHT22;52067;50.710;14.492;2023-08-06T01:05:43;15.27;90.21
65470;DHT22;52067;50.710;14.492;2023-08-06T01:13:16;15.44;89.87
65470;DHT22;52067;50.710;14.492;2023-08-06T01:15:45;15.41;89.49
65470;DHT22;52067;50.710;14.492;2023-08-06T01:18:11;15.37;89.52
65470;DHT22;52067;50.710;14.492;2023-08-06T01:20:37;15.16;90.24
65470;DHT22;52067;50.710;14.492;2023-08-06T01:23:02;15.37;89.88
65470;DHT22;52067;50.710;14.492;2023-08-06T01:25:33;15.28;89.52
65470;DHT22;52067;50.710;14.492;2023-08-06T01:28:01;15.27;89.60
65470;DHT22;52067;50.710;14.492;2023-08-06T01:30:30;15.31;89.85
65470;DHT22;52067;50.710;14.492;2023-08-06T01:33:00;15.28;89.56
65470;DHT22;52067;50.710;14.492;2023-08-06T01:35:28;15.28;89.70
65470;DHT22;52067;50.710;14.492;2023-08-06T01:37:54;15.32;89.55
65470;DHT22;52067;50.710;14.492;2023-08-06T01:40:21;15.38;89.52
65470;DHT22;52067;50.710;14.492;2023-08-06T01:42:46;15.44;89.32
65470;DHT22;52067;50.710;14.492;2023-08-06T01:45:11;15.48;89.30
65470;DHT22;52067;50.710;14.492;2023-08-06T01:47:37;15.35;89.24
65470;DHT22;52067;50.710;14.492;2023-08-06T01:50:02;15.26;90.00
65470;DHT22;52067;50.710;14.492;2023-08-06T01:52:28;15.31;89.59
65470;DHT22;52067;50.710;14.492;2023-08-06T01:54:53;15.39;89.50
65470;DHT22;52067;50.710;14.492;2023-08-06T01:57:19;15.44;89.21
65470;DHT22;52067;50.710;14.492;2023-08-06T01:59:44;15.32;89.66
65470;DHT22;52067;50.710;14.492;2023-08-06T02:02:09;15.20;89.85
65470;DHT22;52067;50.710;14.492;2023-08-06T02:04:35;15.14;90.22
65470;DHT22;52067;50.710;14.492;2023-08-06T02:07:00;15.06;90.53
65470;DHT22;52067;50.710;14.492;2023-08-06T02:09:25;15.12;90.15
65470;DHT22;52067;50.710;14.492;2023-08-06T02:11:50;15.03;90.47
65470;DHT22;52067;50.710;14.492;2023-08-06T02:14:16;15.04;90.50
65470;DHT22;52067;50.710;14.492;2023-08-06T02:16:41;15.20;90.28
65470;DHT22;52067;50.710;14.492;2023-08-06T02:19:06;15.20;90.09
65470;DHT22;52067;50.710;14.492;2023-08-06T02:21:31;15.24;90.28
65470;DHT22;52067;50.710;14.492;2023-08-06T02:23:57;15.27;89.99
65470;DHT22;52067;50.710;14.492;2023-08-06T02:26:22;15.35;89.56
65470;DHT22;52067;50.710;14.492;2023-08-06T02:28:48;15.31;89.14
65470;DHT22;52067;50.710;14.492;2023-08-06T02:31:13;15.42;89.04
65470;DHT22;52067;50.710;14.492;2023-08-06T02:33:38;15.31;89.00
65470;DHT22;52067;50.710;14.492;2023-08-06T02:36:03;15.24;89.41
65470;DHT22;52067;50.710;14.492;2023-08-06T02:38:29;15.28;89.58
65470;DHT22;52067;50.710;14.492;2023-08-06T02:40:54;15.28;89.84
65470;DHT22;52067;50.710;14.492;2023-08-06T02:43:20;15.34;89.40
65470;DHT22;52067;50.710;14.492;2023-08-06T02:45:45;15.27;89.50
65470;DHT22;52067;50.710;14.492;2023-08-06T02:48:10;15.14;89.84
65470;DHT22;52067;50.710;14.492;2023-08-06T02:50:39;15.03;90.04
65470;DHT22;52067;50.710;14.492;2023-08-06T02:53:04;14.80;90.74
65470;DHT22;52067;50.710;14.492;2023-08-06T02:55:30;14.93;90.51
65470;DHT22;52067;50.710;14.492;2023-08-06T02:57:56;14.94;90.86
65470;DHT22;52067;50.710;14.492;2023-08-06T03:00:21;14.91;90.64
65470;DHT22;52067;50.710;14.492;2023-08-06T03:02:46;14.91;90.70
65470;DHT22;52067;50.710;14.492;2023-08-06T03:05:11;15.07;90.47
65470;DHT22;52067;50.710;14.492;2023-08-06T03:07:37;14.97;90.12
65470;DHT22;52067;50.710;14.492;2023-08-06T03:10:02;14.99;90.53
65470;DHT22;52067;50.710;14.492;2023-08-06T03:12:28;14.93;90.54
65470;DHT22;52067;50.710;14.492;2023-08-06T03:14:53;15.00;90.54
65470;DHT22;52067;50.710;14.492;2023-08-06T03:17:18;14.94;90.06
65470;DHT22;52067;50.710;14.492;2023-08-06T03:19:44;14.90;89.98
65470;DHT22;52067;50.710;14.492;2023-08-06T03:22:09;14.96;90.14
65470;DHT22;52067;50.710;14.492;2023-08-06T03:24:34;15.16;90.06
65470;DHT22;52067;50.710;14.492;2023-08-06T03:27:00;15.23;89.87
65470;DHT22;52067;50.710;14.492;2023-08-06T03:29:25;15.18;89.81
65470;DHT22;52067;50.710;14.492;2023-08-06T03:31:51;15.21;89.95
65470;DHT22;52067;50.710;14.492;2023-08-06T03:34:16;14.99;90.48
65470;DHT22;52067;50.710;14.492;2023-08-06T03:36:42;14.90;90.37
65470;DHT22;52067;50.710;14.492;2023-08-06T03:39:07;15.04;90.39
65470;DHT22;52067;50.710;14.492;2023-08-06T03:41:32;14.97;90.59
65470;DHT22;52067;50.710;14.492;2023-08-06T03:43:57;15.06;90.13
65470;DHT22;52067;50.710;14.492;2023-08-06T03:46:23;15.00;89.95
65470;DHT22;52067;50.710;14.492;2023-08-06T03:48:48;14.87;89.98
65470;DHT22;52067;50.710;14.492;2023-08-06T03:51:13;14.81;90.05
65470;DHT22;52067;50.710;14.492;2023-08-06T03:53:38;14.84;90.27
65470;DHT22;52067;50.710;14.492;2023-08-06T03:56:04;14.59;91.16
65470;DHT22;52067;50.710;14.492;2023-08-06T03:58:29;14.72;90.71
65470;DHT22;52067;50.710;14.492;2023-08-06T04:01:01;14.59;90.82
65470;DHT22;52067;50.710;14.492;2023-08-06T04:03:27;14.69;90.55
65470;DHT22;52067;50.710;14.492;2023-08-06T04:05:53;14.65;90.62
65470;DHT22;52067;50.710;14.492;2023-08-06T04:08:19;14.83;90.36
65470;DHT22;52067;50.710;14.492;2023-08-06T04:10:44;14.68;90.59
65470;DHT22;52067;50.710;14.492;2023-08-06T04:13:09;14.90;90.58
65470;DHT22;52067;50.710;14.492;2023-08-06T04:15:34;15.06;90.34
65470;DHT22;52067;50.710;14.492;2023-08-06T04:18:00;14.89;90.32
65470;DHT22;52067;50.710;14.492;2023-08-06T04:20:25;15.00;89.82
65470;DHT22;52067;50.710;14.492;2023-08-06T04:22:50;15.01;89.82
65470;DHT22;52067;50.710;14.492;2023-08-06T04:25:15;15.12;89.55
65470;DHT22;52067;50.710;14.492;2023-08-06T04:27:46;15.12;89.52
65470;DHT22;52067;50.710;14.492;2023-08-06T04:30:11;15.16;89.42
65470;DHT22;52067;50.710;14.492;2023-08-06T04:32:37;15.24;89.23
65470;DHT22;52067;50.710;14.492;2023-08-06T04:35:03;15.16;88.69
65470;DHT22;52067;50.710;14.492;2023-08-06T04:37:28;14.96;89.45
65470;DHT22;52067;50.710;14.492;2023-08-06T04:39:53;14.90;89.95
65470;DHT22;52067;50.710;14.492;2023-08-06T04:42:19;14.84;90.24
65470;DHT22;52067;50.710;14.492;2023-08-06T04:44:44;14.97;89.85
65470;DHT22;52067;50.710;14.492;2023-08-06T04:47:09;15.10;89.72
65470;DHT22;52067;50.710;14.492;2023-08-06T04:49:34;15.17;89.09
65470;DHT22;52067;50.710;14.492;2023-08-06T04:52:00;15.00;89.78
65470;DHT22;52067;50.710;14.492;2023-08-06T04:54:25;14.90;89.80
65470;DHT22;52067;50.710;14.492;2023-08-06T04:56:50;15.08;89.59
65470;DHT22;52067;50.710;14.492;2023-08-06T04:59:15;15.18;89.18
65470;DHT22;52067;50.710;14.492;2023-08-06T05:01:41;15.23;89.05
65470;DHT22;52067;50.710;14.492;2023-08-06T05:04:06;15.31;88.90
65470;DHT22;52067;50.710;14.492;2023-08-06T05:06:31;15.18;89.45
65470;DHT22;52067;50.710;14.492;2023-08-06T05:08:57;15.12;89.60
65470;DHT22;52067;50.710;14.492;2023-08-06T05:11:22;15.16;89.49
65470;DHT22;52067;50.710;14.492;2023-08-06T05:13:47;15.23;89.14
65470;DHT22;52067;50.710;14.492;2023-08-06T05:16:12;15.03;89.28
65470;DHT22;52067;50.710;14.492;2023-08-06T05:18:38;14.77;90.48
65470;DHT22;52067;50.710;14.492;2023-08-06T05:21:03;14.83;90.49
65470;DHT22;52067;50.710;14.492;2023-08-06T05:23:29;14.68;90.92
65470;DHT22;52067;50.710;14.492;2023-08-06T05:25:54;14.79;90.61
65470;DHT22;52067;50.710;14.492;2023-08-06T05:28:19;14.87;90.42
65470;DHT22;52067;50.710;14.492;2023-08-06T05:30:44;14.93;89.93
65470;DHT22;52067;50.710;14.492;2023-08-06T05:33:10;14.81;90.78
65470;DHT22;52067;50.710;14.492;2023-08-06T05:35:35;14.81;90.49
65470;DHT22;52067;50.710;14.492;2023-08-06T05:38:00;14.96;90.65
65470;DHT22;52067;50.710;14.492;2023-08-06T05:40:25;15.07;89.96
65470;DHT22;52067;50.710;14.492;2023-08-06T05:42:54;15.20;89.61
65470;DHT22;52067;50.710;14.492;2023-08-06T05:45:19;15.32;89.51
65470;DHT22;52067;50.710;14.492;2023-08-06T05:47:44;15.10;89.84
65470;DHT22;52067;50.710;14.492;2023-08-06T05:50:09;15.07;90.29
65470;DHT22;52067;50.710;14.492;2023-08-06T05:52:35;15.01;90.18
65470;DHT22;52067;50.710;14.492;2023-08-06T05:55:00;15.03;90.21
65470;DHT22;52067;50.710;14.492;2023-08-06T05:57:25;15.06;89.61
65470;DHT22;52067;50.710;14.492;2023-08-06T05:59:51;14.96;90.09
65470;DHT22;52067;50.710;14.492;2023-08-06T06:02:16;15.07;90.38
65470;DHT22;52067;50.710;14.492;2023-08-06T06:04:43;15.14;90.18
65470;DHT22;52067;50.710;14.492;2023-08-06T06:07:08;15.37;89.71
65470;DHT22;52067;50.710;14.492;2023-08-06T06:09:34;15.35;89.31
65470;DHT22;52067;50.710;14.492;2023-08-06T06:11:59;15.48;88.81
65470;DHT22;52067;50.710;14.492;2023-08-06T06:14:24;15.26;89.20
65470;DHT22;52067;50.710;14.492;2023-08-06T06:16:49;15.45;89.61
65470;DHT22;52067;50.710;14.492;2023-08-06T06:19:15;15.41;88.74
65470;DHT22;52067;50.710;14.492;2023-08-06T06:21:40;15.39;89.25
65470;DHT22;52067;50.710;14.492;2023-08-06T06:24:05;15.63;89.14
65470;DHT22;52067;50.710;14.492;2023-08-06T06:26:31;15.73;88.61
65470;DHT22;52067;50.710;14.492;2023-08-06T06:28:57;15.66;88.45
65470;DHT22;52067;50.710;14.492;2023-08-06T06:31:22;15.78;87.72
65470;DHT22;52067;50.710;14.492;2023-08-06T06:33:48;15.92;87.55
65470;DHT22;52067;50.710;14.492;2023-08-06T06:36:13;15.81;87.78
65470;DHT22;52067;50.710;14.492;2023-08-06T06:38:38;15.76;88.93
65470;DHT22;52067;50.710;14.492;2023-08-06T06:41:04;15.68;88.00
65470;DHT22;52067;50.710;14.492;2023-08-06T06:43:29;15.88;88.10
65470;DHT22;52067;50.710;14.492;2023-08-06T06:46:00;15.96;88.18
65470;DHT22;52067;50.710;14.492;2023-08-06T06:48:29;16.12;87.71
65470;DHT22;52067;50.710;14.492;2023-08-06T06:50:55;16.13;87.79
65470;DHT22;52067;50.710;14.492;2023-08-06T06:53:20;15.90;88.48
65470;DHT22;52067;50.710;14.492;2023-08-06T06:55:46;15.93;87.25
65470;DHT22;52067;50.710;14.492;2023-08-06T06:58:14;15.82;88.69
65470;DHT22;52067;50.710;14.492;2023-08-06T07:00:40;15.95;87.21
65470;DHT22;52067;50.710;14.492;2023-08-06T07:03:05;16.07;87.33
65470;DHT22;52067;50.710;14.492;2023-08-06T07:05:30;16.24;87.00
65470;DHT22;52067;50.710;14.492;2023-08-06T07:07:55;15.96;87.71
65470;DHT22;52067;50.710;14.492;2023-08-06T07:10:21;16.24;86.57
65470;DHT22;52067;50.710;14.492;2023-08-06T07:12:46;16.21;86.81
65470;DHT22;52067;50.710;14.492;2023-08-06T07:15:11;16.24;86.32
65470;DHT22;52067;50.710;14.492;2023-08-06T07:17:37;16.17;87.64
65470;DHT22;52067;50.710;14.492;2023-08-06T07:20:02;16.38;86.91
65470;DHT22;52067;50.710;14.492;2023-08-06T07:22:28;16.31;87.65
65470;DHT22;52067;50.710;14.492;2023-08-06T07:24:53;16.47;87.41
65470;DHT22;52067;50.710;14.492;2023-08-06T07:27:18;16.36;86.72
65470;DHT22;52067;50.710;14.492;2023-08-06T07:29:44;16.36;87.18
65470;DHT22;52067;50.710;14.492;2023-08-06T07:32:09;16.36;87.02
65470;DHT22;52067;50.710;14.492;2023-08-06T07:34:34;16.24;88.05
65470;DHT22;52067;50.710;14.492;2023-08-06T07:36:59;16.30;87.34
65470;DHT22;52067;50.710;14.492;2023-08-06T07:39:25;16.43;87.61
65470;DHT22;52067;50.710;14.492;2023-08-06T07:41:50;16.26;86.92
65470;DHT22;52067;50.710;14.492;2023-08-06T07:44:15;16.30;86.97
65470;DHT22;52067;50.710;14.492;2023-08-06T07:46:41;16.36;86.28
65470;DHT22;52067;50.710;14.492;2023-08-06T07:49:06;16.51;86.61
65470;DHT22;52067;50.710;14.492;2023-08-06T07:51:31;16.28;86.46
65470;DHT22;52067;50.710;14.492;2023-08-06T07:53:56;16.40;87.09
65470;DHT22;52067;50.710;14.492;2023-08-06T07:56:22;16.20;87.86
65470;DHT22;52067;50.710;14.492;2023-08-06T07:58:47;16.16;87.29
65470;DHT22;52067;50.710;14.492;2023-08-06T08:01:12;15.95;88.48
65470;DHT22;52067;50.710;14.492;2023-08-06T08:03:38;16.23;87.57
65470;DHT22;52067;50.710;14.492;2023-08-06T08:06:03;16.44;87.19
65470;DHT22;52067;50.710;14.492;2023-08-06T08:08:28;16.53;85.16
65470;DHT22;52067;50.710;14.492;2023-08-06T08:10:54;16.12;86.65
65470;DHT22;52067;50.710;14.492;2023-08-06T08:13:20;16.38;85.72
65470;DHT22;52067;50.710;14.492;2023-08-06T08:15:45;16.47;86.96
65470;DHT22;52067;50.710;14.492;2023-08-06T08:18:10;16.54;85.65
65470;DHT22;52067;50.710;14.492;2023-08-06T08:20:36;16.33;87.43
65470;DHT22;52067;50.710;14.492;2023-08-06T08:23:01;16.31;87.62
65470;DHT22;52067;50.710;14.492;2023-08-06T08:25:26;15.97;87.73
65470;DHT22;52067;50.710;14.492;2023-08-06T08:27:52;16.26;87.21
65470;DHT22;52067;50.710;14.492;2023-08-06T08:30:17;16.47;86.43
65470;DHT22;52067;50.710;14.492;2023-08-06T08:32:43;16.47;86.32
65470;DHT22;52067;50.710;14.492;2023-08-06T08:35:08;16.47;85.91
65470;DHT22;52067;50.710;14.492;2023-08-06T08:37:33;16.51;85.86
65470;DHT22;52067;50.710;14.492;2023-08-06T08:39:58;16.53;86.18
65470;DHT22;52067;50.710;14.492;2023-08-06T08:42:25;16.48;85.70
65470;DHT22;52067;50.710;14.492;2023-08-06T08:44:51;16.78;86.14
65470;DHT22;52067;50.710;14.492;2023-08-06T08:47:16;16.24;87.17
65470;DHT22;52067;50.710;14.492;2023-08-06T08:49:42;16.68;85.12
65470;DHT22;52067;50.710;14.492;2023-08-06T08:52:08;16.69;86.00
65470;DHT22;52067;50.710;14.492;2023-08-06T08:54:37;16.78;85.31
65470;DHT22;52067;50.710;14.492;2023-08-06T08:57:03;16.82;86.01
65470;DHT22;52067;50.710;14.492;2023-08-06T08:59:28;16.88;85.43
65470;DHT22;52067;50.710;14.492;2023-08-06T09:01:54;16.74;86.43
65470;DHT22;52067;50.710;14.492;2023-08-06T09:04:19;16.75;87.06
65470;DHT22;52067;50.710;14.492;2023-08-06T09:06:50;16.60;85.00
65470;DHT22;52067;50.710;14.492;2023-08-06T09:09:16;16.55;86.59
65470;DHT22;52067;50.710;14.492;2023-08-06T09:11:43;16.55;85.74
65470;DHT22;52067;50.710;14.492;2023-08-06T09:14:08;16.61;85.55
65470;DHT22;52067;50.710;14.492;2023-08-06T09:16:37;16.48;86.59
65470;DHT22;52067;50.710;14.492;2023-08-06T09:19:09;16.79;84.93
65470;DHT22;52067;50.710;14.492;2023-08-06T09:21:38;16.27;87.18
65470;DHT22;52067;50.710;14.492;2023-08-06T09:24:10;16.71;84.94
65470;DHT22;52067;50.710;14.492;2023-08-06T09:26:36;16.85;83.83
65470;DHT22;52067;50.710;14.492;2023-08-06T09:29:01;17.08;83.66
65470;DHT22;52067;50.710;14.492;2023-08-06T09:34:09;17.05;84.11
65470;DHT22;52067;50.710;14.492;2023-08-06T09:36:35;17.19;83.32
65470;DHT22;52067;50.710;14.492;2023-08-06T09:39:07;16.98;83.21
65470;DHT22;52067;50.710;14.492;2023-08-06T09:41:37;16.82;84.81
65470;DHT22;52067;50.710;14.492;2023-08-06T09:44:02;16.85;84.76
65470;DHT22;52067;50.710;14.492;2023-08-06T09:46:28;16.65;85.87
65470;DHT22;52067;50.710;14.492;2023-08-06T09:48:53;16.72;86.20
65470;DHT22;52067;50.710;14.492;2023-08-06T09:51:18;16.72;84.59
65470;DHT22;52067;50.710;14.492;2023-08-06T09:53:44;17.05;85.22
65470;DHT22;52067;50.710;14.492;2023-08-06T09:56:09;16.79;85.15
65470;DHT22;52067;50.710;14.492;2023-08-06T09:58:35;16.76;84.49
65470;DHT22;52067;50.710;14.492;2023-08-06T10:01:01;16.86;83.59
65470;DHT22;52067;50.710;14.492;2023-08-06T10:03:27;16.63;85.40
65470;DHT22;52067;50.710;14.492;2023-08-06T10:05:55;16.89;84.97
65470;DHT22;52067;50.710;14.492;2023-08-06T10:08:20;17.03;85.22
65470;DHT22;52067;50.710;14.492;2023-08-06T10:10:45;16.78;85.55
65470;DHT22;52067;50.710;14.492;2023-08-06T10:13:11;17.03;83.39
65470;DHT22;52067;50.710;14.492;2023-08-06T10:15:38;17.09;83.22
65470;DHT22;52067;50.710;14.492;2023-08-06T10:18:03;16.91;83.79
65470;DHT22;52067;50.710;14.492;2023-08-06T10:20:36;16.89;85.83
65470;DHT22;52067;50.710;14.492;2023-08-06T10:23:02;17.13;83.36
65470;DHT22;52067;50.710;14.492;2023-08-06T10:25:31;17.06;85.16
65470;DHT22;52067;50.710;14.492;2023-08-06T10:27:58;17.23;83.46
65470;DHT22;52067;50.710;14.492;2023-08-06T10:30:27;16.75;85.17
65470;DHT22;52067;50.710;14.492;2023-08-06T10:32:54;16.72;83.92
65470;DHT22;52067;50.710;14.492;2023-08-06T10:38:11;16.96;84.03
65470;DHT22;52067;50.710;14.492;2023-08-06T10:40:37;16.88;84.77
65470;DHT22;52067;50.710;14.492;2023-08-06T10:43:04;16.60;86.22
65470;DHT22;52067;50.710;14.492;2023-08-06T10:45:33;16.76;85.13
65470;DHT22;52067;50.710;14.492;2023-08-06T10:47:59;17.02;83.85
65470;DHT22;52067;50.710;14.492;2023-08-06T10:50:24;16.76;84.64
65470;DHT22;52067;50.710;14.492;2023-08-06T10:52:50;16.55;85.03
65470;DHT22;52067;50.710;14.492;2023-08-06T10:55:26;16.53;84.72
65470;DHT22;52067;50.710;14.492;2023-08-06T10:57:51;16.53;85.61
65470;DHT22;52067;50.710;14.492;2023-08-06T11:00:17;16.57;85.87
65470;DHT22;52067;50.710;14.492;2023-08-06T11:02:42;16.75;84.14
65470;DHT22;52067;50.710;14.492;2023-08-06T11:05:09;17.12;84.17
65470;DHT22;52067;50.710;14.492;2023-08-06T11:07:35;16.82;85.17
65470;DHT22;52067;50.710;14.492;2023-08-06T11:10:01;16.99;85.08
65470;DHT22;52067;50.710;14.492;2023-08-06T11:12:26;16.86;84.24
65470;DHT22;52067;50.710;14.492;2023-08-06T11:14:52;17.02;82.76
65470;DHT22;52067;50.710;14.492;2023-08-06T11:17:18;17.01;83.14
65470;DHT22;52067;50.710;14.492;2023-08-06T11:19:43;16.54;85.41
65470;DHT22;52067;50.710;14.492;2023-08-06T11:22:09;16.82;83.52
65470;DHT22;52067;50.710;14.492;2023-08-06T11:24:34;17.11;83.20
65470;DHT22;52067;50.710;14.492;2023-08-06T11:26:59;16.74;83.94
65470;DHT22;52067;50.710;14.492;2023-08-06T11:29:25;16.67;85.44
65470;DHT22;52067;50.710;14.492;2023-08-06T11:31:51;16.88;82.73
65470;DHT22;52067;50.710;14.492;2023-08-06T11:34:16;16.76;83.54
65470;DHT22;52067;50.710;14.492;2023-08-06T11:36:42;16.61;84.44
65470;DHT22;52067;50.710;14.492;2023-08-06T11:39:07;17.18;82.08
65470;DHT22;52067;50.710;14.492;2023-08-06T11:41:33;17.18;82.45
65470;DHT22;52067;50.710;14.492;2023-08-06T11:43:58;17.16;84.86
65470;DHT22;52067;50.710;14.492;2023-08-06T11:46:24;17.16;83.66
65470;DHT22;52067;50.710;14.492;2023-08-06T11:48:59;17.49;81.98
65470;DHT22;52067;50.710;14.492;2023-08-06T11:51:25;17.66;81.70
65470;DHT22;52067;50.710;14.492;2023-08-06T11:53:56;18.18;81.35
65470;DHT22;52067;50.710;14.492;2023-08-06T11:56:22;17.74;80.31
65470;DHT22;52067;50.710;14.492;2023-08-06T11:58:47;17.85;81.12
65470;DHT22;52067;50.710;14.492;2023-08-06T12:01:13;17.73;83.70
65470;DHT22;52067;50.710;14.492;2023-08-06T12:03:39;18.13;79.68
65470;DHT22;52067;50.710;14.492;2023-08-06T12:06:04;17.98;79.81
65470;DHT22;52067;50.710;14.492;2023-08-06T12:08:30;18.33;79.13
65470;DHT22;52067;50.710;14.492;2023-08-06T12:10:55;18.05;79.97
65470;DHT22;52067;50.710;14.492;2023-08-06T12:13:20;17.95;80.33
65470;DHT22;52067;50.710;14.492;2023-08-06T12:15:45;18.01;78.59
65470;DHT22;52067;50.710;14.492;2023-08-06T12:18:11;17.94;77.85
65470;DHT22;52067;50.710;14.492;2023-08-06T12:20:36;17.63;81.71
65470;DHT22;52067;50.710;14.492;2023-08-06T12:23:03;17.95;80.52
65470;DHT22;52067;50.710;14.492;2023-08-06T12:25:28;18.13;79.10
65470;DHT22;52067;50.710;14.492;2023-08-06T12:27:54;18.24;78.84
65470;DHT22;52067;50.710;14.492;2023-08-06T12:30:19;18.48;77.10
65470;DHT22;52067;50.710;14.492;2023-08-06T12:32:44;18.43;79.75
65470;DHT22;52067;50.710;14.492;2023-08-06T12:35:10;18.61;77.72
65470;DHT22;52067;50.710;14.492;2023-08-06T12:37:35;18.57;78.41
65470;DHT22;52067;50.710;14.492;2023-08-06T12:40:00;18.50;78.75
65470;DHT22;52067;50.710;14.492;2023-08-06T12:42:26;18.57;78.35
65470;DHT22;52067;50.710;14.492;2023-08-06T12:44:51;17.95;79.81
65470;DHT22;52067;50.710;14.492;2023-08-06T12:47:17;18.33;79.95
65470;DHT22;52067;50.710;14.492;2023-08-06T12:49:42;18.31;79.20
65470;DHT22;52067;50.710;14.492;2023-08-06T12:52:08;18.59;80.34
65470;DHT22;52067;50.710;14.492;2023-08-06T12:54:34;18.77;78.13
65470;DHT22;52067;50.710;14.492;2023-08-06T12:57:01;18.94;78.08
65470;DHT22;52067;50.710;14.492;2023-08-06T12:59:27;18.36;81.12
65470;DHT22;52067;50.710;14.492;2023-08-06T13:01:52;18.66;80.23
65470;DHT22;52067;50.710;14.492;2023-08-06T13:04:17;18.28;81.03
65470;DHT22;52067;50.710;14.492;2023-08-06T13:06:43;18.24;82.02
65470;DHT22;52067;50.710;14.492;2023-08-06T13:09:08;18.13;82.14
65470;DHT22;52067;50.710;14.492;2023-08-06T13:11:34;18.43;77.81
65470;DHT22;52067;50.710;14.492;2023-08-06T13:14:04;18.50;78.90
65470;DHT22;52067;50.710;14.492;2023-08-06T13:16:30;17.80;82.74
65470;DHT22;52067;50.710;14.492;2023-08-06T13:18:55;17.88;81.61
65470;DHT22;52067;50.710;14.492;2023-08-06T13:21:21;18.19;80.88
65470;DHT22;52067;50.710;14.492;2023-08-06T13:23:46;18.46;80.31
65470;DHT22;52067;50.710;14.492;2023-08-06T13:26:12;18.36;81.76
65470;DHT22;52067;50.710;14.492;2023-08-06T13:28:38;18.38;79.20
65470;DHT22;52067;50.710;14.492;2023-08-06T13:31:03;18.36;78.92
65470;DHT22;52067;50.710;14.492;2023-08-06T13:33:29;18.57;79.35
65470;DHT22;52067;50.710;14.492;2023-08-06T13:35:54;18.31;80.42
65470;DHT22;52067;50.710;14.492;2023-08-06T13:38:19;18.79;79.06
65470;DHT22;52067;50.710;14.492;2023-08-06T13:40:45;18.87;78.18
65470;DHT22;52067;50.710;14.492;2023-08-06T13:43:11;19.06;78.04
65470;DHT22;52067;50.710;14.492;2023-08-06T13:45:36;19.12;77.20
65470;DHT22;52067;50.710;14.492;2023-08-06T13:48:03;18.80;76.62
65470;DHT22;52067;50.710;14.492;2023-08-06T13:50:28;18.60;78.58
65470;DHT22;52067;50.710;14.492;2023-08-06T13:52:54;18.22;81.59
65470;DHT22;52067;50.710;14.492;2023-08-06T13:55:21;18.57;80.85
65470;DHT22;52067;50.710;14.492;2023-08-06T13:57:46;18.11;81.26
65470;DHT22;52067;50.710;14.492;2023-08-06T14:00:11;18.36;78.47
65470;DHT22;52067;50.710;14.492;2023-08-06T14:02:37;18.40;81.08
65470;DHT22;52067;50.710;14.492;2023-08-06T14:05:02;18.77;78.79
65470;DHT22;52067;50.710;14.492;2023-08-06T14:07:27;18.90;79.33
65470;DHT22;52067;50.710;14.492;2023-08-06T14:09:53;18.67;78.70
65470;DHT22;52067;50.710;14.492;2023-08-06T14:12:18;18.73;78.48
65470;DHT22;52067;50.710;14.492;2023-08-06T14:14:43;18.57;75.43
65470;DHT22;52067;50.710;14.492;2023-08-06T14:17:08;18.19;75.78
65470;DHT22;52067;50.710;14.492;2023-08-06T14:19:34;18.32;76.26
65470;DHT22;52067;50.710;14.492;2023-08-06T14:21:59;18.48;75.62
65470;DHT22;52067;50.710;14.492;2023-08-06T14:24:24;18.52;76.89
65470;DHT22;52067;50.710;14.492;2023-08-06T14:26:50;18.06;78.15
65470;DHT22;52067;50.710;14.492;2023-08-06T14:29:15;18.12;77.96
65470;DHT22;52067;50.710;14.492;2023-08-06T14:31:41;18.02;78.72
65470;DHT22;52067;50.710;14.492;2023-08-06T14:34:06;18.24;78.30
65470;DHT22;52067;50.710;14.492;2023-08-06T14:36:31;18.15;76.07
65470;DHT22;52067;50.710;14.492;2023-08-06T14:38:57;17.87;77.24
65470;DHT22;52067;50.710;14.492;2023-08-06T14:41:22;18.06;77.95
65470;DHT22;52067;50.710;14.492;2023-08-06T14:43:47;18.15;76.49
65470;DHT22;52067;50.710;14.492;2023-08-06T14:46:12;18.06;76.17
65470;DHT22;52067;50.710;14.492;2023-08-06T14:48:38;18.09;77.93
65470;DHT22;52067;50.710;14.492;2023-08-06T14:51:04;18.04;76.91
65470;DHT22;52067;50.710;14.492;2023-08-06T14:53:29;17.87;78.94
65470;DHT22;52067;50.710;14.492;2023-08-06T14:55:55;17.88;78.31
65470;DHT22;52067;50.710;14.492;2023-08-06T14:58:20;17.88;78.25
65470;DHT22;52067;50.710;14.492;2023-08-06T15:00:45;17.85;78.46
65470;DHT22;52067;50.710;14.492;2023-08-06T15:03:11;17.69;80.58
65470;DHT22;52067;50.710;14.492;2023-08-06T15:05:36;17.46;79.39
65470;DHT22;52067;50.710;14.492;2023-08-06T15:08:01;17.74;80.13
65470;DHT22;52067;50.710;14.492;2023-08-06T15:10:27;17.50;81.12
65470;DHT22;52067;50.710;14.492;2023-08-06T15:12:52;17.50;81.88
65470;DHT22;52067;50.710;14.492;2023-08-06T15:15:17;17.91;79.22